createdAt,value
2023-04-27T00:00:39.164Z,9.34
2023-04-27T00:03:06.299Z,9.30
2023-04-27T00:05:39.189Z,9.33
2023-04-27T00:08:07.003Z,9.32
2023-04-27T00:10:33.491Z,9.24
2023-04-27T00:13:00.377Z,9.21
2023-04-27T00:15:27.067Z,9.19
2023-04-27T00:17:53.576Z,9.16
2023-04-27T00:20:20.742Z,9.17
2023-04-27T00:22:47.249Z,9.16
2023-04-27T00:25:13.637Z,9.09
2023-04-27T00:27:40.025Z,9.03
2023-04-27T00:30:06.892Z,9.00
2023-04-27T00:32:33.358Z,9.01
2023-04-27T00:34:59.691Z,9.01
2023-04-27T00:37:26.488Z,8.97
2023-04-27T00:39:53.033Z,9.01
2023-04-27T00:42:19.701Z,8.98
2023-04-27T00:44:47.090Z,8.92
2023-04-27T00:47:14.089Z,9.05
2023-04-27T00:49:40.996Z,8.92
2023-04-27T00:52:07.747Z,8.88
2023-04-27T00:54:34.368Z,8.91
2023-04-27T00:57:00.793Z,8.86
2023-04-27T00:59:27.238Z,8.79
2023-04-27T01:01:55.029Z,8.82
2023-04-27T01:04:21.890Z,8.75
2023-04-27T01:06:48.418Z,8.79
2023-04-27T01:09:16.439Z,8.84
2023-04-27T01:11:42.829Z,8.78
2023-04-27T01:14:09.456Z,8.74
2023-04-27T01:16:35.924Z,8.67
2023-04-27T01:19:02.461Z,8.69
2023-04-27T01:21:28.993Z,8.62
2023-04-27T01:23:55.427Z,8.60
2023-04-27T01:26:22.454Z,8.56
2023-04-27T01:28:49.071Z,8.51
2023-04-27T01:31:15.575Z,8.60
2023-04-27T01:33:42.365Z,8.60
2023-04-27T01:36:09.335Z,8.60
2023-04-27T01:38:35.966Z,8.60
2023-04-27T01:41:04.735Z,8.59
2023-04-27T01:43:32.241Z,8.37
2023-04-27T01:46:12.431Z,8.19
2023-04-27T01:48:39.980Z,8.18
2023-04-27T01:51:06.980Z,8.01
2023-04-27T01:53:33.667Z,7.89
2023-04-27T01:56:00.828Z,7.84
2023-04-27T01:58:27.792Z,7.83
2023-04-27T02:00:54.285Z,7.88
2023-04-27T02:03:20.898Z,7.94
2023-04-27T02:05:47.958Z,7.97
2023-04-27T02:08:14.631Z,8.00
2023-04-27T02:10:41.199Z,8.05
2023-04-27T02:13:07.680Z,8.10
2023-04-27T02:15:35.295Z,8.11
2023-04-27T02:18:03.336Z,8.04
2023-04-27T02:20:33.239Z,7.99
2023-04-27T02:22:59.946Z,7.96
2023-04-27T02:25:26.800Z,7.77
2023-04-27T02:27:53.836Z,7.62
2023-04-27T02:30:21.281Z,7.64
2023-04-27T02:32:48.222Z,7.65
2023-04-27T02:35:14.788Z,7.64
2023-04-27T02:37:41.611Z,7.66
2023-04-27T02:40:09.225Z,7.61
2023-04-27T02:42:35.746Z,7.49
2023-04-27T02:45:02.215Z,7.43
2023-04-27T02:47:28.635Z,7.18
2023-04-27T02:49:55.182Z,7.11
2023-04-27T02:52:21.528Z,7.18
2023-04-27T02:54:47.876Z,7.05
2023-04-27T02:57:14.365Z,7.06
2023-04-27T02:59:40.796Z,7.14
2023-04-27T03:02:07.696Z,7.18
2023-04-27T03:04:34.086Z,7.06
2023-04-27T03:07:00.479Z,7.14
2023-04-27T03:09:27.018Z,7.13
2023-04-27T03:11:53.400Z,7.07
2023-04-27T03:14:19.750Z,7.18
2023-04-27T03:16:46.343Z,7.14
2023-04-27T03:19:12.972Z,7.24
2023-04-27T03:21:39.431Z,7.23
2023-04-27T03:24:06.124Z,7.03
2023-04-27T03:26:32.490Z,7.03
2023-04-27T03:28:58.963Z,7.06
2023-04-27T03:31:25.494Z,7.04
2023-04-27T03:33:51.874Z,7.01
2023-04-27T03:36:18.250Z,7.04
2023-04-27T03:38:44.737Z,7.08
2023-04-27T03:41:11.592Z,6.92
2023-04-27T03:43:37.947Z,6.87
2023-04-27T03:46:04.550Z,6.81
2023-04-27T03:48:30.995Z,6.89
2023-04-27T03:50:57.381Z,6.96
2023-04-27T03:53:23.827Z,6.93
2023-04-27T03:55:50.190Z,6.84
2023-04-27T03:58:17.459Z,6.89
2023-04-27T04:00:44.071Z,6.94
2023-04-27T04:03:10.598Z,6.93
2023-04-27T04:05:37.204Z,6.93
2023-04-27T04:08:03.925Z,6.96
2023-04-27T04:10:30.279Z,7.02
2023-04-27T04:12:56.632Z,6.97
2023-04-27T04:15:23.158Z,6.91
2023-04-27T04:17:49.577Z,6.88
2023-04-27T04:20:16.183Z,6.90
2023-04-27T04:22:43.705Z,6.92
2023-04-27T04:25:11.699Z,6.84
2023-04-27T04:27:38.094Z,6.87
2023-04-27T04:30:06.417Z,6.78
2023-04-27T04:32:33.787Z,6.77
2023-04-27T04:35:01.493Z,6.78
2023-04-27T04:37:28.224Z,6.68
2023-04-27T04:39:54.680Z,6.74
2023-04-27T04:42:21.089Z,6.75
2023-04-27T04:44:47.430Z,6.76
2023-04-27T04:47:13.814Z,6.62
2023-04-27T04:49:40.193Z,6.60
2023-04-27T04:52:06.572Z,6.62
2023-04-27T04:54:33.035Z,6.52
2023-04-27T04:57:00.874Z,6.57
2023-04-27T04:59:27.214Z,6.65
2023-04-27T05:01:56.727Z,6.67
2023-04-27T05:04:23.311Z,6.62
2023-04-27T05:06:49.768Z,6.78
2023-04-27T05:09:16.184Z,6.66
2023-04-27T05:11:42.537Z,6.70
2023-04-27T05:14:08.945Z,6.71
2023-04-27T05:16:35.499Z,6.69
2023-04-27T05:19:01.960Z,6.73
2023-04-27T05:21:28.423Z,6.77
2023-04-27T05:23:54.952Z,6.87
2023-04-27T05:26:21.615Z,7.01
2023-04-27T05:28:49.304Z,7.15
2023-04-27T05:31:16.058Z,7.21
2023-04-27T05:33:42.538Z,7.12
2023-04-27T05:36:09.387Z,7.22
2023-04-27T05:38:39.926Z,7.23
2023-04-27T05:41:06.499Z,7.28
2023-04-27T05:43:34.882Z,7.35
2023-04-27T05:46:01.842Z,7.28
2023-04-27T05:48:28.251Z,7.32
2023-04-27T05:51:01.949Z,7.41
2023-04-27T05:53:29.064Z,7.45
2023-04-27T05:55:56.703Z,7.54
2023-04-27T05:58:23.210Z,7.59
2023-04-27T06:00:50.421Z,7.63
2023-04-27T06:03:16.999Z,7.60
2023-04-27T06:05:43.597Z,7.77
2023-04-27T06:08:12.071Z,8.00
2023-04-27T06:10:41.545Z,8.06
2023-04-27T06:13:07.954Z,8.09
2023-04-27T06:15:34.463Z,8.12
2023-04-27T06:18:01.013Z,8.14
2023-04-27T06:20:27.461Z,8.14
2023-04-27T06:22:53.864Z,8.23
2023-04-27T06:25:20.356Z,8.35
2023-04-27T06:27:47.361Z,8.45
2023-04-27T06:30:13.945Z,8.49
2023-04-27T06:32:40.659Z,8.71
2023-04-27T06:35:07.290Z,8.75
2023-04-27T06:37:33.735Z,8.80
2023-04-27T06:40:00.124Z,8.84
2023-04-27T06:42:27.273Z,9.17
2023-04-27T06:44:55.894Z,9.16
2023-04-27T06:47:22.802Z,9.17
2023-04-27T06:49:49.735Z,9.31
2023-04-27T06:52:16.448Z,9.35
2023-04-27T06:54:42.960Z,9.36
2023-04-27T06:57:09.403Z,9.35
2023-04-27T06:59:36.101Z,9.32
2023-04-27T07:02:02.535Z,9.44
2023-04-27T07:04:30.166Z,9.65
2023-04-27T07:06:56.814Z,9.80
2023-04-27T07:09:27.551Z,9.93
2023-04-27T07:11:55.162Z,10.04
2023-04-27T07:14:22.303Z,10.00
2023-04-27T07:16:48.699Z,10.05
2023-04-27T07:19:15.243Z,10.03
2023-04-27T07:21:41.953Z,10.06
2023-04-27T07:24:08.518Z,10.12
2023-04-27T07:26:34.956Z,10.34
2023-04-27T07:29:04.225Z,10.42
2023-04-27T07:31:34.884Z,10.44
2023-04-27T07:34:01.263Z,10.54
2023-04-27T07:36:27.675Z,10.76
2023-04-27T07:38:54.040Z,10.95
2023-04-27T07:41:21.815Z,11.27
2023-04-27T07:43:48.261Z,11.00
2023-04-27T07:46:14.703Z,10.96
2023-04-27T07:48:41.219Z,11.15
2023-04-27T07:51:07.614Z,11.27
2023-04-27T07:53:35.489Z,11.21
2023-04-27T07:56:01.984Z,11.17
2023-04-27T07:58:28.316Z,11.31
2023-04-27T08:00:54.610Z,11.29
2023-04-27T08:03:22.854Z,11.53
2023-04-27T08:05:49.844Z,11.95
2023-04-27T08:08:17.010Z,11.94
2023-04-27T08:10:43.405Z,12.24
2023-04-27T08:13:10.012Z,12.38
2023-04-27T08:15:37.245Z,12.60
2023-04-27T08:18:03.905Z,12.36
2023-04-27T08:20:30.384Z,12.71
2023-04-27T08:22:56.785Z,12.75
2023-04-27T08:25:23.398Z,12.60
2023-04-27T08:27:49.759Z,12.63
2023-04-27T08:30:16.646Z,12.61
2023-04-27T08:32:43.195Z,12.61
2023-04-27T08:35:09.678Z,12.54
2023-04-27T08:37:36.066Z,12.62
2023-04-27T08:40:06.115Z,12.36
2023-04-27T08:42:32.808Z,12.34
2023-04-27T08:44:59.348Z,12.53
2023-04-27T08:47:38.706Z,12.64
2023-04-27T08:50:08.239Z,12.47
2023-04-27T08:52:34.857Z,12.71
2023-04-27T08:55:01.211Z,12.97
2023-04-27T08:57:27.522Z,13.15
2023-04-27T09:00:01.244Z,13.08
2023-04-27T09:02:29.591Z,13.57
2023-04-27T09:04:56.937Z,13.42
2023-04-27T09:07:23.585Z,13.16
2023-04-27T09:09:50.347Z,13.22
2023-04-27T09:12:21.817Z,13.38
2023-04-27T09:14:58.033Z,13.41
2023-04-27T09:17:27.715Z,13.39
2023-04-27T09:20:10.804Z,13.54
2023-04-27T09:22:47.610Z,13.61
2023-04-27T09:25:27.191Z,13.89
2023-04-27T09:27:54.186Z,14.26
2023-04-27T09:30:20.945Z,14.51
2023-04-27T09:32:59.390Z,14.09
2023-04-27T09:35:29.291Z,14.07
2023-04-27T09:37:56.128Z,14.26
2023-04-27T09:40:26.627Z,14.03
2023-04-27T09:42:54.864Z,13.81
2023-04-27T09:45:21.428Z,13.51
2023-04-27T09:47:48.221Z,13.54
2023-04-27T09:50:15.449Z,13.66
2023-04-27T09:52:42.657Z,13.61
2023-04-27T09:55:13.734Z,13.88
2023-04-27T09:58:09.452Z,13.81
2023-04-27T10:00:51.688Z,14.03
2023-04-27T10:03:33.424Z,14.15
2023-04-27T10:06:21.547Z,14.46
2023-04-27T10:08:51.784Z,14.32
2023-04-27T10:11:19.253Z,14.15
2023-04-27T10:13:54.845Z,14.63
2023-04-27T10:16:21.812Z,15.06
2023-04-27T10:18:55.736Z,15.11
2023-04-27T10:21:23.720Z,14.63
2023-04-27T10:23:51.829Z,14.88
2023-04-27T10:26:25.535Z,15.09
2023-04-27T10:29:07.928Z,15.12
2023-04-27T10:31:35.198Z,15.20
2023-04-27T10:34:15.855Z,15.22
2023-04-27T10:36:42.566Z,15.27
2023-04-27T10:39:25.575Z,15.13
2023-04-27T10:41:59.337Z,15.02
2023-04-27T10:44:29.098Z,15.04
2023-04-27T10:46:57.300Z,15.02
2023-04-27T10:49:23.793Z,14.81
2023-04-27T10:51:51.320Z,14.86
2023-04-27T10:54:18.644Z,14.98
2023-04-27T10:56:45.389Z,14.83
2023-04-27T10:59:12.117Z,14.86
2023-04-27T11:01:40.218Z,15.14
2023-04-27T11:04:06.756Z,15.31
2023-04-27T11:06:42.908Z,15.22
2023-04-27T11:09:10.868Z,15.11
2023-04-27T11:11:37.363Z,15.26
2023-04-27T11:14:03.858Z,14.98
2023-04-27T11:16:32.933Z,14.93
2023-04-27T11:19:05.081Z,15.02
2023-04-27T11:21:32.346Z,15.18
2023-04-27T11:24:07.530Z,15.21
2023-04-27T11:26:34.020Z,15.37
2023-04-27T11:29:05.130Z,15.38
2023-04-27T11:31:49.374Z,15.34
2023-04-27T11:34:22.782Z,15.32
2023-04-27T11:37:17.976Z,15.29
2023-04-27T11:39:46.236Z,15.48
2023-04-27T11:42:23.407Z,15.52
2023-04-27T11:44:54.405Z,15.65
2023-04-27T11:47:22.720Z,15.66
2023-04-27T11:49:50.519Z,15.60
2023-04-27T11:52:17.595Z,15.74
2023-04-27T11:54:52.943Z,15.86
2023-04-27T11:57:29.282Z,15.80
2023-04-27T11:59:57.662Z,15.82
2023-04-27T12:02:24.115Z,15.78
2023-04-27T12:04:51.614Z,15.88
2023-04-27T12:07:19.262Z,15.91
2023-04-27T12:09:46.006Z,16.02
2023-04-27T12:12:13.949Z,16.00
2023-04-27T12:14:41.330Z,15.78
2023-04-27T12:17:07.794Z,15.59
2023-04-27T12:19:34.341Z,15.41
2023-04-27T12:22:00.728Z,15.47
2023-04-27T12:24:27.046Z,15.56
2023-04-27T12:26:53.455Z,15.77
2023-04-27T12:29:20.539Z,15.84
2023-04-27T12:31:46.970Z,15.85
2023-04-27T12:34:13.693Z,15.88
2023-04-27T12:36:40.391Z,15.66
2023-04-27T12:39:20.655Z,15.98
2023-04-27T12:41:48.317Z,16.20
2023-04-27T12:44:15.967Z,16.30
2023-04-27T12:46:43.892Z,16.03
2023-04-27T12:49:11.107Z,16.20
2023-04-27T12:51:37.640Z,16.32
2023-04-27T12:54:05.137Z,16.27
2023-04-27T12:56:31.563Z,16.18
2023-04-27T12:58:58.256Z,16.36
2023-04-27T13:01:27.563Z,16.49
2023-04-27T13:03:56.029Z,16.82
2023-04-27T13:06:22.823Z,17.10
2023-04-27T13:08:49.905Z,17.18
2023-04-27T13:11:17.170Z,17.21
2023-04-27T13:13:48.021Z,17.23
2023-04-27T13:16:14.521Z,17.40
2023-04-27T13:18:41.285Z,17.45
2023-04-27T13:21:07.970Z,17.56
2023-04-27T13:23:34.579Z,17.57
2023-04-27T13:26:01.372Z,17.52
2023-04-27T13:28:27.775Z,17.68
2023-04-27T13:30:54.249Z,17.71
2023-04-27T13:33:23.304Z,17.73
2023-04-27T13:35:52.016Z,17.84
2023-04-27T13:38:18.551Z,17.88
2023-04-27T13:40:44.968Z,18.00
2023-04-27T13:43:11.362Z,18.01
2023-04-27T13:45:39.517Z,18.01
2023-04-27T13:48:06.464Z,18.19
2023-04-27T13:50:33.128Z,18.32
2023-04-27T13:53:01.730Z,18.29
2023-04-27T13:55:28.195Z,18.35
2023-04-27T13:57:54.643Z,18.47
2023-04-27T14:00:21.484Z,18.59
2023-04-27T14:02:47.974Z,18.86
2023-04-27T14:05:14.662Z,18.59
2023-04-27T14:07:41.042Z,18.53
2023-04-27T14:10:08.033Z,18.47
2023-04-27T14:12:35.314Z,18.30
2023-04-27T14:15:01.754Z,18.56
2023-04-27T14:17:28.123Z,18.56
2023-04-27T14:19:54.505Z,18.52
2023-04-27T14:22:20.942Z,18.60
2023-04-27T14:24:47.226Z,18.68
2023-04-27T14:27:15.169Z,18.45
2023-04-27T14:29:41.513Z,18.38
2023-04-27T14:32:08.414Z,18.33
2023-04-27T14:34:35.081Z,18.28
2023-04-27T14:37:01.472Z,18.23
2023-04-27T14:39:28.154Z,18.14
2023-04-27T14:41:54.552Z,17.96
2023-04-27T14:44:21.012Z,17.79
2023-04-27T14:46:47.511Z,17.98
2023-04-27T14:49:14.107Z,18.04
2023-04-27T14:51:43.428Z,18.07
2023-04-27T14:54:10.070Z,17.98
2023-04-27T14:56:36.707Z,17.85
2023-04-27T14:59:03.306Z,17.73
2023-04-27T15:01:29.813Z,17.67
2023-04-27T15:03:58.078Z,17.78
2023-04-27T15:06:28.239Z,17.86
2023-04-27T15:08:55.298Z,17.71
2023-04-27T15:11:22.065Z,17.43
2023-04-27T15:13:48.645Z,17.52
2023-04-27T15:16:15.212Z,17.67
2023-04-27T15:18:42.133Z,17.59
2023-04-27T15:21:08.950Z,17.78
2023-04-27T15:23:37.267Z,17.73
2023-04-27T15:26:04.173Z,17.71
2023-04-27T15:28:30.599Z,17.97
2023-04-27T15:30:57.081Z,17.94
2023-04-27T15:33:23.579Z,17.84
2023-04-27T15:35:50.185Z,17.49
2023-04-27T15:38:17.872Z,17.54
2023-04-27T15:40:44.230Z,17.55
2023-04-27T15:43:10.680Z,17.57
2023-04-27T15:45:37.168Z,17.43
2023-04-27T15:48:03.825Z,17.22
2023-04-27T15:50:30.429Z,17.14
2023-04-27T15:52:56.884Z,17.08
2023-04-27T15:55:23.408Z,17.22
2023-04-27T15:57:50.480Z,17.19
2023-04-27T16:00:18.903Z,17.26
2023-04-27T16:02:46.797Z,17.17
2023-04-27T16:05:13.698Z,17.17
2023-04-27T16:07:42.644Z,17.24
2023-04-27T16:10:09.872Z,17.11
2023-04-27T16:12:36.599Z,17.02
2023-04-27T16:15:03.717Z,17.05
2023-04-27T16:17:37.462Z,17.12
2023-04-27T16:20:08.456Z,17.22
2023-04-27T16:22:36.144Z,17.27
2023-04-27T16:25:03.944Z,17.17
2023-04-27T16:27:30.845Z,17.13
2023-04-27T16:29:57.300Z,17.12
2023-04-27T16:32:23.846Z,17.18
2023-04-27T16:34:50.512Z,16.98
2023-04-27T16:37:16.954Z,16.91
2023-04-27T16:39:43.338Z,16.68
2023-04-27T16:42:10.137Z,16.49
2023-04-27T16:44:38.336Z,16.57
2023-04-27T16:47:04.636Z,16.48
2023-04-27T16:49:31.035Z,16.49
2023-04-27T16:51:57.405Z,16.65
2023-04-27T16:54:23.745Z,16.65
2023-04-27T16:56:50.273Z,16.55
2023-04-27T16:59:17.068Z,16.32
2023-04-27T17:01:43.674Z,16.31
2023-04-27T17:04:10.749Z,16.27
2023-04-27T17:06:37.170Z,16.19
2023-04-27T17:09:03.641Z,16.21
2023-04-27T17:11:30.048Z,16.21
2023-04-27T17:13:56.636Z,16.14
2023-04-27T17:16:23.508Z,16.11
2023-04-27T17:18:50.009Z,16.11
2023-04-27T17:21:17.291Z,16.04
2023-04-27T17:23:46.519Z,16.10
2023-04-27T17:28:42.036Z,15.98
2023-04-27T17:31:08.562Z,15.93
2023-04-27T17:33:35.250Z,16.03
2023-04-27T17:36:01.613Z,16.05
2023-04-27T17:38:28.099Z,15.89
2023-04-27T17:40:54.493Z,15.83
2023-04-27T17:43:20.885Z,15.91
2023-04-27T17:45:48.219Z,15.82
2023-04-27T17:48:14.736Z,15.84
2023-04-27T17:50:41.270Z,15.95
2023-04-27T17:53:07.669Z,15.91
2023-04-27T17:55:34.102Z,15.96
2023-04-27T17:58:00.581Z,16.01
2023-04-27T18:00:27.091Z,15.96
2023-04-27T18:02:53.688Z,15.97
2023-04-27T18:05:20.244Z,16.06
2023-04-27T18:07:46.635Z,16.05
2023-04-27T18:10:13.524Z,16.06
2023-04-27T18:12:39.822Z,15.95
2023-04-27T18:15:09.469Z,15.89
2023-04-27T18:17:36.573Z,15.94
2023-04-27T18:20:09.370Z,15.93
2023-04-27T18:22:37.802Z,15.85
2023-04-27T18:25:04.616Z,15.75
2023-04-27T18:27:31.826Z,15.83
2023-04-27T18:29:58.425Z,15.91
2023-04-27T18:32:24.871Z,15.87
2023-04-27T18:34:51.215Z,15.87
2023-04-27T18:37:17.739Z,15.70
2023-04-27T18:39:44.160Z,15.74
2023-04-27T18:42:10.475Z,15.73
2023-04-27T18:44:37.105Z,15.63
2023-04-27T18:47:03.503Z,15.67
2023-04-27T18:49:29.880Z,15.57
2023-04-27T18:51:56.371Z,15.38
2023-04-27T18:54:22.678Z,15.20
2023-04-27T18:56:52.864Z,15.07
2023-04-27T18:59:20.137Z,14.97
2023-04-27T19:01:46.827Z,14.98
2023-04-27T19:04:14.453Z,14.91
2023-04-27T19:06:41.025Z,14.78
2023-04-27T19:09:09.070Z,14.67
2023-04-27T19:11:35.941Z,14.70
2023-04-27T19:14:02.483Z,14.69
2023-04-27T19:16:29.011Z,14.65
2023-04-27T19:18:55.473Z,14.70
2023-04-27T19:21:21.938Z,14.72
2023-04-27T19:23:48.355Z,14.60
2023-04-27T19:26:14.929Z,14.67
2023-04-27T19:28:41.417Z,14.64
2023-04-27T19:31:07.890Z,14.52
2023-04-27T19:33:34.454Z,14.51
2023-04-27T19:36:00.839Z,14.48
2023-04-27T19:38:27.341Z,14.42
2023-04-27T19:40:53.688Z,14.34
2023-04-27T19:43:20.208Z,14.34
2023-04-27T19:45:48.711Z,14.31
2023-04-27T19:48:15.215Z,14.15
2023-04-27T19:50:41.756Z,14.21
2023-04-27T19:53:08.206Z,14.29
2023-04-27T19:55:34.879Z,14.22
2023-04-27T19:58:01.463Z,14.12
2023-04-27T20:00:27.920Z,14.07
2023-04-27T20:02:54.473Z,13.95
2023-04-27T20:05:21.412Z,14.05
2023-04-27T20:07:50.002Z,14.04
2023-04-27T20:10:16.706Z,14.12
2023-04-27T20:12:55.478Z,14.07
2023-04-27T20:15:23.702Z,14.00
2023-04-27T20:17:50.171Z,14.06
2023-04-27T20:20:16.676Z,13.98
2023-04-27T20:22:43.112Z,13.99
2023-04-27T20:25:09.944Z,13.90
2023-04-27T20:27:36.563Z,13.89
2023-04-27T20:30:04.176Z,14.03
2023-04-27T20:32:30.592Z,13.97
2023-04-27T20:34:56.958Z,13.89
2023-04-27T20:37:24.761Z,13.82
2023-04-27T20:39:54.363Z,13.85
2023-04-27T20:42:20.832Z,13.87
2023-04-27T20:44:48.331Z,13.96
2023-04-27T20:47:15.297Z,13.94
2023-04-27T20:49:41.898Z,13.92
2023-04-27T20:52:08.260Z,13.89
2023-04-27T20:54:34.673Z,13.98
2023-04-27T20:57:02.083Z,14.01
2023-04-27T20:59:28.665Z,14.05
2023-04-27T21:01:55.117Z,14.01
2023-04-27T21:04:21.602Z,14.08
2023-04-27T21:06:48.104Z,14.09
2023-04-27T21:09:14.514Z,14.13
2023-04-27T21:11:40.880Z,14.12
2023-04-27T21:14:07.324Z,14.15
2023-04-27T21:16:33.778Z,14.15
2023-04-27T21:19:00.215Z,14.18
2023-04-27T21:21:27.081Z,14.17
2023-04-27T21:24:04.131Z,14.09
2023-04-27T21:26:34.105Z,14.11
2023-04-27T21:29:01.095Z,14.14
2023-04-27T21:31:27.525Z,14.11
2023-04-27T21:33:54.060Z,14.12
2023-04-27T21:36:20.497Z,14.08
2023-04-27T21:38:47.189Z,14.04
2023-04-27T21:41:13.888Z,13.99
2023-04-27T21:43:42.016Z,13.99
2023-04-27T21:46:09.093Z,14.03
2023-04-27T21:48:35.888Z,13.99
2023-04-27T21:51:02.734Z,14.02
2023-04-27T21:53:32.127Z,14.07
2023-04-27T21:55:58.699Z,14.01
2023-04-27T21:58:25.689Z,14.02
2023-04-27T22:00:52.120Z,14.00
2023-04-27T22:03:18.632Z,14.03
2023-04-27T22:05:45.368Z,14.01
2023-04-27T22:08:12.124Z,14.02
2023-04-27T22:10:38.781Z,14.04
2023-04-27T22:13:17.836Z,14.09
2023-04-27T22:15:45.063Z,14.03
2023-04-27T22:18:11.438Z,14.02
2023-04-27T22:20:38.328Z,14.03
2023-04-27T22:23:04.828Z,14.04
2023-04-27T22:25:31.506Z,14.07
2023-04-27T22:27:57.862Z,13.99
2023-04-27T22:30:24.444Z,13.89
2023-04-27T22:32:51.343Z,13.95
2023-04-27T22:35:26.391Z,13.91
2023-04-27T22:37:58.934Z,13.89
2023-04-27T22:40:25.584Z,13.88
2023-04-27T22:42:52.716Z,13.92
2023-04-27T22:45:19.228Z,13.86
2023-04-27T22:47:46.034Z,13.85
2023-04-27T22:50:13.410Z,13.86
2023-04-27T22:52:42.282Z,13.86
2023-04-27T22:55:09.693Z,13.85
2023-04-27T22:57:36.074Z,13.87
2023-04-27T23:00:05.186Z,13.95
2023-04-27T23:02:31.997Z,13.93
2023-04-27T23:04:58.831Z,13.92
2023-04-27T23:07:25.347Z,13.95
2023-04-27T23:09:52.781Z,13.93
2023-04-27T23:12:20.654Z,13.97
2023-04-27T23:14:47.177Z,14.01
2023-04-27T23:17:15.498Z,14.01
2023-04-27T23:19:41.961Z,13.99
2023-04-27T23:22:08.381Z,14.02
2023-04-27T23:24:34.828Z,14.08
2023-04-27T23:27:01.264Z,14.05
2023-04-27T23:29:27.870Z,14.06
2023-04-27T23:31:54.258Z,14.01
2023-04-27T23:34:20.582Z,13.99
2023-04-27T23:36:47.034Z,13.99
2023-04-27T23:39:13.419Z,13.97
2023-04-27T23:41:39.719Z,13.93
2023-04-27T23:44:06.226Z,13.97
2023-04-27T23:46:32.672Z,14.01
2023-04-27T23:48:59.069Z,14.02
2023-04-27T23:51:25.553Z,14.00
2023-04-27T23:53:51.874Z,13.91
2023-04-27T23:56:19.216Z,13.92
2023-04-27T23:58:45.933Z,13.93
